createdAt,value
2023-12-01T00:00:26.540Z,38.97
2023-12-01T00:02:55.863Z,34.15
2023-12-01T00:05:23.601Z,41.90
2023-12-01T00:07:51.337Z,42.33
2023-12-01T00:10:19.090Z,41.20
2023-12-01T00:12:46.778Z,44.17
2023-12-01T00:15:14.425Z,52.80
2023-12-01T00:17:42.225Z,58.83
2023-12-01T00:20:12.198Z,48.87
2023-12-01T00:22:39.904Z,41.67
2023-12-01T00:25:08.039Z,43.33
2023-12-01T00:27:35.775Z,38.92
2023-12-01T00:30:04.664Z,37.87
2023-12-01T00:35:00.063Z,45.67
2023-12-01T00:37:29.143Z,47.77
2023-12-01T00:39:56.853Z,47.07
2023-12-01T00:42:24.830Z,48.63
2023-12-01T00:44:52.558Z,48.00
2023-12-01T00:47:20.360Z,47.67
2023-12-01T00:49:48.686Z,50.63
2023-12-01T00:52:16.344Z,47.70
2023-12-01T00:54:45.537Z,48.30
2023-12-01T00:57:13.247Z,41.90
2023-12-01T00:59:40.890Z,46.90
2023-12-01T01:02:09.703Z,39.03
2023-12-01T01:07:05.503Z,42.40
2023-12-01T01:09:33.285Z,39.25
2023-12-01T01:12:02.759Z,40.93
2023-12-01T01:14:30.484Z,40.93
2023-12-01T01:16:58.724Z,44.53
2023-12-01T01:19:26.464Z,44.95
2023-12-01T01:21:54.215Z,45.63
2023-12-01T01:24:22.022Z,36.77
2023-12-01T01:26:49.708Z,41.40
2023-12-01T01:29:18.764Z,38.30
2023-12-01T01:31:46.655Z,41.23
2023-12-01T01:34:14.395Z,37.33
2023-12-01T01:36:45.528Z,38.07
2023-12-01T01:39:13.531Z,39.23
2023-12-01T01:41:41.256Z,43.00
2023-12-01T01:44:08.885Z,39.93
2023-12-01T01:46:38.314Z,36.47
2023-12-01T01:49:06.669Z,38.33
2023-12-01T01:51:36.561Z,38.17
2023-12-01T01:54:04.803Z,37.83
2023-12-01T01:56:34.165Z,35.53
2023-12-01T01:59:02.372Z,36.43
2023-12-01T02:01:31.026Z,35.95
2023-12-01T02:06:34.219Z,36.20
2023-12-01T02:09:02.231Z,33.60
2023-12-01T02:11:29.954Z,31.53
2023-12-01T02:14:00.877Z,33.53
2023-12-01T02:16:29.632Z,34.80
2023-12-01T02:18:57.836Z,34.53
2023-12-01T02:21:27.574Z,36.38
2023-12-01T02:23:57.507Z,33.90
2023-12-01T02:26:25.416Z,38.23
2023-12-01T02:28:53.089Z,37.35
2023-12-01T02:31:20.959Z,32.50
2023-12-01T02:33:48.749Z,38.90
2023-12-01T02:36:18.846Z,42.40
2023-12-01T02:38:46.656Z,36.07
2023-12-01T02:41:16.689Z,33.83
2023-12-01T02:43:44.326Z,36.07
2023-12-01T02:46:13.493Z,36.37
2023-12-01T02:48:41.601Z,34.30
2023-12-01T02:51:10.192Z,37.40
2023-12-01T02:53:37.940Z,37.50
2023-12-01T02:56:06.202Z,37.03
2023-12-01T02:58:35.260Z,42.42
2023-12-01T03:01:04.392Z,34.83
2023-12-01T03:03:32.307Z,31.73
2023-12-01T03:06:00.057Z,35.87
2023-12-01T03:08:27.852Z,37.17
2023-12-01T03:10:56.242Z,35.60
2023-12-01T03:13:24.223Z,32.80
2023-12-01T03:15:53.780Z,39.10
2023-12-01T03:18:23.850Z,35.40
2023-12-01T03:20:52.341Z,35.13
2023-12-01T03:23:20.046Z,37.00
2023-12-01T03:25:47.796Z,37.73
2023-12-01T03:28:16.617Z,29.63
2023-12-01T03:33:13.778Z,32.10
2023-12-01T03:35:41.621Z,38.27
2023-12-01T03:38:09.328Z,39.17
2023-12-01T03:40:36.983Z,37.23
2023-12-01T03:43:04.792Z,36.07
2023-12-01T03:45:32.563Z,38.20
2023-12-01T03:48:00.283Z,39.23
2023-12-01T03:50:29.922Z,38.20
2023-12-01T03:52:57.674Z,40.67
2023-12-01T03:55:25.520Z,36.90
2023-12-01T03:57:53.283Z,37.40
2023-12-01T04:00:23.753Z,36.57
2023-12-01T04:02:51.837Z,41.73
2023-12-01T04:05:23.219Z,39.38
2023-12-01T04:07:56.131Z,36.63
2023-12-01T04:10:25.970Z,44.80
2023-12-01T04:15:26.238Z,42.60
2023-12-01T04:17:54.736Z,44.20
2023-12-01T04:20:23.742Z,36.67
2023-12-01T04:22:54.300Z,45.80
2023-12-01T04:25:22.275Z,42.77
2023-12-01T04:27:50.689Z,41.65
2023-12-01T04:30:18.807Z,43.72
2023-12-01T04:32:49.332Z,42.00
2023-12-01T04:35:17.807Z,38.97
2023-12-01T04:37:45.612Z,47.63
2023-12-01T04:40:18.118Z,41.70
2023-12-01T04:42:46.736Z,42.30
2023-12-01T04:45:16.173Z,45.80
2023-12-01T04:47:45.465Z,40.87
2023-12-01T04:50:14.684Z,44.13
2023-12-01T04:52:43.672Z,43.13
2023-12-01T04:57:41.481Z,42.30
2023-12-01T05:00:20.191Z,44.80
2023-12-01T05:02:49.853Z,44.63
2023-12-01T05:05:18.631Z,49.37
2023-12-01T05:10:16.769Z,44.22
2023-12-01T05:12:50.435Z,40.43
2023-12-01T05:15:19.976Z,41.90
2023-12-01T05:17:49.266Z,44.60
2023-12-01T05:20:17.775Z,45.37
2023-12-01T05:22:47.462Z,43.33
2023-12-01T05:25:16.204Z,44.73
2023-12-01T05:27:50.312Z,41.75
2023-12-01T05:30:20.891Z,43.53
2023-12-01T05:32:49.796Z,43.00
2023-12-01T05:37:49.078Z,42.95
2023-12-01T05:40:18.467Z,48.73
2023-12-01T05:42:48.421Z,45.37
2023-12-01T05:45:17.367Z,42.10
2023-12-01T05:50:14.208Z,45.55
2023-12-01T05:52:43.250Z,44.17
2023-12-01T05:55:17.162Z,41.50
2023-12-01T05:57:47.020Z,41.43
2023-12-01T06:00:18.523Z,41.65
2023-12-01T06:02:47.398Z,41.53
2023-12-01T06:07:44.818Z,42.60
2023-12-01T06:10:13.352Z,37.37
2023-12-01T06:12:41.631Z,37.85
2023-12-01T06:15:11.701Z,38.95
2023-12-01T06:17:42.873Z,39.67
2023-12-01T06:20:18.523Z,40.87
2023-12-01T06:22:48.202Z,42.40
2023-12-01T06:25:16.645Z,44.57
2023-12-01T06:27:44.913Z,41.88
2023-12-01T06:30:14.128Z,42.95
2023-12-01T06:32:43.806Z,41.90
2023-12-01T06:35:13.431Z,45.90
2023-12-01T06:37:41.830Z,42.63
2023-12-01T06:40:13.037Z,44.00
2023-12-01T06:42:42.780Z,44.10
2023-12-01T06:45:12.622Z,44.60
2023-12-01T06:47:42.454Z,44.73
2023-12-01T06:50:12.195Z,38.37
2023-12-01T06:52:40.336Z,43.60
2023-12-01T06:55:09.957Z,41.05
2023-12-01T06:57:39.694Z,43.90
2023-12-01T07:00:09.476Z,44.90
2023-12-01T07:02:39.904Z,45.23
2023-12-01T07:05:08.899Z,41.27
2023-12-01T07:10:08.173Z,46.60
2023-12-01T07:12:36.231Z,44.40
2023-12-01T07:15:04.695Z,42.72
2023-12-01T07:17:32.441Z,43.65
2023-12-01T07:20:00.410Z,41.27
2023-12-01T07:22:28.155Z,41.47
2023-12-01T07:24:57.228Z,40.73
2023-12-01T07:27:26.788Z,38.67
2023-12-01T07:29:54.489Z,34.43
2023-12-01T07:32:22.171Z,36.70
2023-12-01T07:34:50.113Z,33.83
2023-12-01T07:37:17.852Z,42.17
2023-12-01T07:39:45.793Z,35.17
2023-12-01T07:42:14.879Z,37.20
2023-12-01T07:44:42.797Z,37.67
2023-12-01T07:47:13.296Z,39.33
2023-12-01T07:49:41.324Z,36.50
2023-12-01T07:52:09.706Z,34.83
2023-12-01T07:54:37.371Z,37.53
2023-12-01T07:57:05.823Z,31.87
2023-12-01T07:59:34.843Z,33.47
2023-12-01T08:02:04.405Z,33.87
2023-12-01T08:04:32.850Z,27.97
2023-12-01T08:07:00.588Z,32.17
2023-12-01T08:09:32.347Z,29.27
2023-12-01T08:12:00.310Z,36.10
2023-12-01T08:14:28.005Z,34.83
2023-12-01T08:16:57.302Z,29.60
2023-12-01T08:19:25.139Z,30.40
2023-12-01T08:21:53.089Z,29.57
2023-12-01T08:24:31.417Z,35.80
2023-12-01T08:27:00.998Z,30.43
2023-12-01T08:29:28.756Z,30.58
2023-12-01T08:31:58.013Z,28.23
2023-12-01T08:34:26.614Z,30.13
2023-12-01T08:39:22.889Z,29.50
2023-12-01T08:41:54.389Z,25.42
2023-12-01T08:44:22.339Z,25.63
2023-12-01T08:46:50.436Z,30.83
2023-12-01T08:49:20.672Z,26.87
2023-12-01T08:51:48.338Z,27.00
2023-12-01T08:54:21.725Z,29.63
2023-12-01T08:56:50.118Z,31.60
2023-12-01T08:59:18.840Z,22.77
2023-12-01T09:01:46.909Z,27.15
2023-12-01T09:04:14.838Z,28.25
2023-12-01T09:06:43.898Z,28.60
2023-12-01T09:09:13.639Z,27.53
2023-12-01T09:11:41.768Z,25.00
2023-12-01T09:14:09.500Z,26.40
2023-12-01T09:16:37.162Z,25.17
2023-12-01T09:19:07.394Z,28.10
2023-12-01T09:21:35.534Z,25.40
2023-12-01T09:24:05.073Z,27.13
2023-12-01T09:26:32.834Z,30.53
2023-12-01T09:29:00.523Z,27.20
2023-12-01T09:31:28.234Z,30.53
2023-12-01T09:33:56.054Z,27.90
2023-12-01T09:36:23.885Z,25.80
2023-12-01T09:38:51.726Z,26.70
2023-12-01T09:41:21.172Z,24.73
2023-12-01T09:46:18.509Z,27.13
2023-12-01T09:48:48.523Z,26.52
2023-12-01T09:51:16.362Z,25.80
2023-12-01T09:53:44.272Z,26.17
2023-12-01T09:56:13.817Z,29.10
2023-12-01T09:58:44.625Z,26.97
2023-12-01T10:01:12.616Z,22.33
2023-12-01T10:03:40.418Z,28.38
2023-12-01T10:06:09.614Z,28.52
2023-12-01T10:08:37.922Z,27.40
2023-12-01T10:11:21.016Z,26.95
2023-12-01T10:13:51.061Z,26.50
2023-12-01T10:16:19.012Z,28.50
2023-12-01T10:18:58.197Z,22.23
2023-12-01T10:21:46.234Z,24.60
2023-12-01T10:24:15.850Z,24.38
2023-12-01T10:26:45.008Z,27.30
2023-12-01T10:29:30.827Z,25.23
2023-12-01T10:31:59.836Z,23.93
2023-12-01T10:34:28.305Z,29.00
2023-12-01T10:36:56.684Z,23.15
2023-12-01T10:39:30.440Z,24.15
2023-12-01T10:42:02.848Z,21.50
2023-12-01T10:44:35.983Z,22.03
2023-12-01T10:47:04.891Z,21.97
2023-12-01T10:52:03.421Z,21.73
2023-12-01T10:54:32.928Z,22.27
2023-12-01T10:57:13.890Z,21.47
2023-12-01T10:59:47.805Z,23.17
2023-12-01T11:02:16.392Z,23.27
2023-12-01T11:04:46.092Z,22.27
2023-12-01T11:07:47.709Z,22.50
2023-12-01T11:10:25.074Z,25.30
2023-12-01T11:13:09.850Z,21.27
2023-12-01T11:15:40.489Z,22.63
2023-12-01T11:18:09.932Z,20.80
2023-12-01T11:20:38.756Z,22.50
2023-12-01T11:23:23.421Z,21.83
2023-12-01T11:25:56.717Z,21.73
2023-12-01T11:28:29.298Z,21.27
2023-12-01T11:31:09.224Z,24.43
2023-12-01T11:33:41.031Z,25.60
2023-12-01T11:36:24.805Z,20.20
2023-12-01T11:39:28.886Z,22.00
2023-12-01T11:42:12.385Z,20.47
2023-12-01T11:44:41.940Z,21.50
2023-12-01T11:47:14.024Z,20.50
2023-12-01T11:49:44.844Z,19.20
2023-12-01T11:52:14.799Z,21.13
2023-12-01T11:54:43.689Z,18.20
2023-12-01T11:57:12.958Z,21.30
2023-12-01T11:59:40.837Z,21.77
2023-12-01T12:02:09.478Z,22.87
2023-12-01T12:04:39.382Z,21.23
2023-12-01T12:07:07.428Z,18.93
2023-12-01T12:09:36.997Z,21.60
2023-12-01T12:12:10.822Z,23.07
2023-12-01T12:14:40.039Z,19.43
2023-12-01T12:17:08.470Z,19.67
2023-12-01T12:19:46.453Z,19.42
2023-12-01T12:22:18.151Z,19.77
2023-12-01T12:24:46.102Z,22.33
2023-12-01T12:27:14.152Z,21.27
2023-12-01T12:29:41.836Z,18.48
2023-12-01T12:32:09.786Z,20.97
2023-12-01T12:34:39.827Z,20.13
2023-12-01T12:37:12.721Z,20.87
2023-12-01T12:39:43.219Z,19.83
2023-12-01T12:42:17.559Z,19.83
2023-12-01T12:44:46.850Z,20.80
2023-12-01T12:47:14.588Z,22.13
2023-12-01T12:49:43.060Z,22.10
2023-12-01T12:52:12.109Z,19.77
2023-12-01T12:54:42.192Z,19.40
2023-12-01T12:57:09.962Z,21.17
2023-12-01T12:59:38.421Z,18.20
2023-12-01T13:02:06.786Z,20.45
2023-12-01T13:04:34.641Z,21.40
2023-12-01T13:07:02.435Z,21.00
2023-12-01T13:09:31.563Z,19.70
2023-12-01T13:11:59.614Z,22.13
2023-12-01T13:14:27.606Z,21.03
2023-12-01T13:16:56.902Z,21.55
2023-12-01T13:19:25.704Z,19.73
2023-12-01T13:21:56.127Z,21.80
2023-12-01T13:24:24.907Z,21.63
2023-12-01T13:26:54.197Z,20.40
2023-12-01T13:29:21.964Z,22.60
2023-12-01T13:31:50.076Z,19.30
2023-12-01T13:34:19.062Z,18.48
2023-12-01T13:39:17.356Z,15.03
2023-12-01T13:41:45.346Z,17.80
2023-12-01T13:44:15.263Z,17.63
2023-12-01T13:46:43.244Z,18.80
2023-12-01T13:49:12.595Z,15.00
2023-12-01T13:51:40.404Z,15.33
2023-12-01T13:54:11.952Z,16.10
2023-12-01T13:56:42.432Z,15.90
2023-12-01T13:59:10.213Z,15.17
2023-12-01T14:01:40.486Z,18.20
2023-12-01T14:04:08.529Z,17.87
2023-12-01T14:06:36.460Z,17.08
2023-12-01T14:09:05.433Z,19.27
2023-12-01T14:11:33.187Z,18.63
2023-12-01T14:14:00.922Z,16.17
2023-12-01T14:16:28.673Z,18.77
2023-12-01T14:18:57.801Z,16.60
2023-12-01T14:21:26.015Z,16.67
2023-12-01T14:23:53.727Z,16.67
2023-12-01T14:26:21.515Z,15.90
2023-12-01T14:28:49.218Z,18.87
2023-12-01T14:31:17.254Z,16.07
2023-12-01T14:33:45.026Z,16.15
2023-12-01T14:36:15.575Z,16.65
2023-12-01T14:38:43.375Z,19.10
2023-12-01T14:41:11.166Z,18.77
2023-12-01T14:43:39.016Z,19.83
2023-12-01T14:46:07.642Z,17.43
2023-12-01T14:48:35.600Z,17.05
2023-12-01T14:51:03.383Z,17.80
2023-12-01T14:53:32.582Z,17.97
2023-12-01T14:56:00.357Z,16.73
2023-12-01T14:58:28.098Z,17.80
2023-12-01T15:00:55.814Z,18.93
2023-12-01T15:03:23.504Z,19.63
2023-12-01T15:05:51.896Z,20.67
2023-12-01T15:08:19.651Z,15.70
2023-12-01T15:10:49.008Z,19.77
2023-12-01T15:13:16.680Z,17.70
2023-12-01T15:15:44.406Z,20.10
2023-12-01T15:18:12.122Z,20.07
2023-12-01T15:20:39.921Z,19.10
2023-12-01T15:23:07.629Z,21.07
2023-12-01T15:25:35.516Z,21.03
2023-12-01T15:28:04.564Z,20.03
2023-12-01T15:30:33.446Z,20.73
2023-12-01T15:33:03.035Z,20.90
2023-12-01T15:35:30.303Z,22.53
2023-12-01T15:37:57.948Z,23.80
2023-12-01T15:40:25.891Z,22.17
2023-12-01T15:42:53.608Z,20.05
2023-12-01T15:45:22.690Z,21.20
2023-12-01T15:47:50.562Z,21.50
2023-12-01T15:50:18.319Z,20.85
2023-12-01T15:52:46.094Z,22.07
2023-12-01T15:55:13.780Z,21.23
2023-12-01T15:57:41.433Z,20.70
2023-12-01T16:00:10.720Z,22.03
2023-12-01T16:02:39.878Z,21.10
2023-12-01T16:05:09.272Z,18.97
2023-12-01T16:07:37.007Z,21.50
2023-12-01T16:10:04.949Z,23.93
2023-12-01T16:12:32.622Z,23.13
2023-12-01T16:15:08.798Z,18.30
2023-12-01T16:17:44.787Z,19.03
2023-12-01T16:20:13.383Z,20.23
2023-12-01T16:22:41.266Z,22.20
2023-12-01T16:25:09.391Z,22.43
2023-12-01T16:27:37.113Z,22.20
2023-12-01T16:30:05.890Z,23.87
2023-12-01T16:32:33.567Z,22.92
2023-12-01T16:35:03.383Z,26.33
2023-12-01T16:37:31.470Z,26.13
2023-12-01T16:39:59.221Z,23.57
2023-12-01T16:42:27.168Z,32.40
2023-12-01T16:44:58.062Z,25.20
2023-12-01T16:47:25.829Z,25.80
2023-12-01T16:49:53.745Z,27.10
2023-12-01T16:52:23.392Z,26.38
2023-12-01T16:54:51.735Z,25.80
2023-12-01T16:57:19.804Z,29.02
2023-12-01T16:59:48.222Z,29.15
2023-12-01T17:02:16.092Z,21.88
2023-12-01T17:04:43.944Z,25.17
2023-12-01T17:07:11.692Z,25.03
2023-12-01T17:09:42.056Z,26.60
2023-12-01T17:12:10.178Z,30.77
2023-12-01T17:14:38.976Z,30.45
2023-12-01T17:17:07.146Z,25.23
2023-12-01T17:19:35.045Z,27.77
2023-12-01T17:22:02.801Z,27.25
2023-12-01T17:24:30.567Z,26.33
2023-12-01T17:26:59.723Z,27.50
2023-12-01T17:29:29.670Z,27.97
2023-12-01T17:32:01.275Z,28.27
2023-12-01T17:34:29.314Z,26.67
2023-12-01T17:36:57.051Z,30.83
2023-12-01T17:39:24.786Z,31.80
2023-12-01T17:41:52.548Z,30.20
2023-12-01T17:44:22.230Z,41.33
2023-12-01T17:46:50.357Z,37.37
2023-12-01T17:49:18.194Z,37.60
2023-12-01T17:51:45.898Z,35.60
2023-12-01T17:54:14.646Z,32.00
2023-12-01T17:56:42.488Z,36.30
2023-12-01T17:59:10.490Z,31.30
2023-12-01T18:01:39.747Z,30.48
2023-12-01T18:04:07.701Z,30.43
2023-12-01T18:06:35.406Z,32.35
2023-12-01T18:09:03.158Z,28.87
2023-12-01T18:11:30.900Z,29.27
2023-12-01T18:13:58.644Z,25.40
2023-12-01T18:16:26.604Z,25.37
2023-12-01T18:18:55.783Z,27.90
2023-12-01T18:21:23.573Z,25.53
2023-12-01T18:23:51.394Z,28.80
2023-12-01T18:26:19.268Z,27.27
2023-12-01T18:28:46.983Z,33.40
2023-12-01T18:31:15.815Z,34.40
2023-12-01T18:36:15.094Z,34.38
2023-12-01T18:38:42.863Z,33.13
2023-12-01T18:41:11.100Z,36.73
2023-12-01T18:43:39.071Z,33.08
2023-12-01T18:46:07.244Z,30.90
2023-12-01T18:48:35.332Z,30.70
2023-12-01T18:51:05.336Z,31.23
2023-12-01T18:53:36.216Z,32.37
2023-12-01T18:56:03.905Z,28.60
2023-12-01T18:58:31.717Z,30.47
2023-12-01T19:00:59.494Z,30.40
2023-12-01T19:03:27.386Z,32.53
2023-12-01T19:05:55.252Z,30.75
2023-12-01T19:08:23.039Z,29.47
2023-12-01T19:10:53.053Z,29.27
2023-12-01T19:13:20.972Z,27.10
2023-12-01T19:15:48.754Z,35.25
2023-12-01T19:18:16.518Z,30.30
2023-12-01T19:20:44.546Z,28.17
2023-12-01T19:23:12.268Z,26.88
2023-12-01T19:25:39.925Z,28.47
2023-12-01T19:28:08.947Z,28.47
2023-12-01T19:30:36.670Z,27.73
2023-12-01T19:33:04.598Z,28.83
2023-12-01T19:35:32.357Z,28.40
2023-12-01T19:38:00.097Z,26.63
2023-12-01T19:40:27.805Z,27.30
2023-12-01T19:42:55.454Z,26.83
2023-12-01T19:45:24.513Z,34.00
2023-12-01T19:47:52.318Z,35.10
2023-12-01T19:50:20.060Z,36.10
2023-12-01T19:52:47.736Z,34.10
2023-12-01T19:55:15.561Z,30.20
2023-12-01T19:57:44.400Z,34.17
2023-12-01T20:02:41.873Z,32.10
2023-12-01T20:05:10.048Z,31.70
2023-12-01T20:07:37.785Z,35.13
2023-12-01T20:10:06.121Z,32.77
2023-12-01T20:12:33.836Z,32.95
2023-12-01T20:15:01.766Z,35.45
2023-12-01T20:17:29.619Z,32.63
2023-12-01T20:19:58.763Z,27.33
2023-12-01T20:22:26.507Z,29.97
2023-12-01T20:24:54.205Z,27.77
2023-12-01T20:27:21.924Z,35.00
2023-12-01T20:29:49.649Z,33.67
2023-12-01T20:32:17.431Z,35.03
2023-12-01T20:34:46.030Z,31.23
2023-12-01T20:37:15.325Z,30.85
2023-12-01T20:39:44.096Z,32.60
2023-12-01T20:42:11.844Z,32.53
2023-12-01T20:44:39.898Z,32.33
2023-12-01T20:47:09.493Z,33.55
2023-12-01T20:49:39.385Z,35.23
2023-12-01T20:52:08.847Z,39.17
2023-12-01T20:54:39.838Z,35.43
2023-12-01T20:57:07.690Z,31.73
2023-12-01T20:59:35.782Z,32.60
2023-12-01T21:02:04.024Z,29.05
2023-12-01T21:04:33.446Z,34.13
2023-12-01T21:07:01.200Z,31.37
2023-12-01T21:09:29.112Z,30.70
2023-12-01T21:11:58.195Z,32.92
2023-12-01T21:14:26.173Z,31.57
2023-12-01T21:16:53.850Z,30.77
2023-12-01T21:19:21.759Z,33.67
2023-12-01T21:21:49.546Z,38.80
2023-12-01T21:24:18.494Z,37.37
2023-12-01T21:26:49.654Z,39.97
2023-12-01T21:29:19.064Z,36.63
2023-12-01T21:31:46.874Z,40.33
2023-12-01T21:34:14.944Z,38.87
2023-12-01T21:36:44.670Z,36.58
2023-12-01T21:39:15.128Z,37.73
2023-12-01T21:41:42.977Z,37.23
2023-12-01T21:44:11.505Z,38.47
2023-12-01T21:46:40.538Z,33.92
2023-12-01T21:49:08.543Z,33.97
2023-12-01T21:51:36.453Z,39.90
2023-12-01T21:54:06.000Z,35.07
2023-12-01T21:56:33.808Z,32.67
2023-12-01T21:59:01.570Z,29.93
2023-12-01T22:01:29.487Z,32.50
2023-12-01T22:03:58.534Z,34.22
2023-12-01T22:06:26.405Z,32.50
2023-12-01T22:08:54.180Z,31.48
2023-12-01T22:11:21.950Z,28.57
2023-12-01T22:13:49.715Z,30.40
2023-12-01T22:16:20.886Z,33.93
2023-12-01T22:18:53.559Z,33.80
2023-12-01T22:21:22.695Z,35.60
2023-12-01T22:23:50.456Z,30.43
2023-12-01T22:26:18.198Z,33.70
2023-12-01T22:28:45.928Z,34.33
2023-12-01T22:31:13.635Z,32.50
2023-12-01T22:33:41.354Z,34.60
2023-12-01T22:36:09.692Z,31.10
2023-12-01T22:38:38.741Z,36.53
2023-12-01T22:41:07.394Z,32.03
2023-12-01T22:43:35.137Z,36.58
2023-12-01T22:46:04.660Z,35.40
2023-12-01T22:48:32.569Z,33.93
2023-12-01T22:51:00.427Z,30.70
2023-12-01T22:53:28.169Z,35.50
2023-12-01T22:55:57.197Z,35.07
2023-12-01T22:58:25.046Z,34.87
2023-12-01T23:00:52.742Z,34.50
2023-12-01T23:03:20.572Z,33.03
2023-12-01T23:05:48.514Z,31.15
2023-12-01T23:08:16.271Z,31.42
2023-12-01T23:10:44.139Z,33.33
2023-12-01T23:13:13.239Z,36.30
2023-12-01T23:15:40.966Z,31.67
2023-12-01T23:18:08.953Z,32.40
2023-12-01T23:20:36.825Z,31.52
2023-12-01T23:23:04.601Z,30.93
2023-12-01T23:25:32.330Z,31.70
2023-12-01T23:28:00.095Z,31.97
2023-12-01T23:30:29.202Z,32.63
2023-12-01T23:32:58.031Z,33.63
2023-12-01T23:35:25.903Z,32.00
2023-12-01T23:37:53.640Z,33.07
2023-12-01T23:40:21.314Z,31.87
2023-12-01T23:42:48.988Z,33.30
2023-12-01T23:45:17.497Z,33.93
2023-12-01T23:47:47.475Z,32.35
2023-12-01T23:50:15.227Z,29.23
2023-12-01T23:52:42.892Z,32.87
2023-12-01T23:55:10.671Z,32.70
2023-12-01T23:57:38.390Z,34.73
